Time;durP1;ratioP1;P1;durP2;ratioP2;P2;SDS_P1;SDS_P2;PMS_P1;PMS_P2;Temp;Humidity;BMP_temperature;BMP_pressure;BME280_temperature;BME280_humidity;BME280_pressure;Samples;Min_cycle;Max_cycle;Signal;HPM_P1;HPM_P2
2021/03/19 00:01:38;;;;;;;0.20;0.20;;;;;;;2.93;100.00;100323.81;5041433;28;20507;-55
2021/03/19 00:04:05;;;;;;;0.20;0.10;;;;;;;2.71;100.00;100335.09;5040259;28;20471;-55
2021/03/19 00:06:32;;;;;;;0.20;0.20;;;;;;;2.54;100.00;100334.16;5045522;28;21015;-55
2021/03/19 00:09:01;;;;;;;0.20;0.10;;;;;;;2.42;100.00;100334.09;5047812;28;20454;-55
2021/03/19 00:11:27;;;;;;;0.30;0.10;;;;;;;2.66;100.00;100328.97;5042129;28;20455;-55
2021/03/19 00:13:53;;;;;;;0.20;0.10;;;;;;;2.49;100.00;100331.53;5040241;28;20455;-55
2021/03/19 00:16:20;;;;;;;0.20;0.10;;;;;;;2.55;100.00;100333.28;5039214;28;20538;-55
2021/03/19 00:18:47;;;;;;;1.70;1.60;;;;;;;2.75;100.00;100325.50;5031723;28;20458;-55
2021/03/19 00:21:13;;;;;;;0.20;0.10;;;;;;;3.06;100.00;100318.59;5033309;28;20463;-56
2021/03/19 00:23:40;;;;;;;0.20;0.13;;;;;;;3.21;100.00;100324.75;5041540;28;20455;-56
2021/03/19 00:26:06;;;;;;;0.20;0.10;;;;;;;3.28;100.00;100316.00;5038827;28;20534;-56
2021/03/19 00:28:32;;;;;;;0.20;0.10;;;;;;;3.25;100.00;100315.13;5045318;28;20447;-56
2021/03/19 00:30:58;;;;;;;0.20;0.10;;;;;;;3.18;100.00;100322.13;5046609;28;20476;-55
2021/03/19 00:33:24;;;;;;;0.20;0.20;;;;;;;3.17;100.00;100320.38;5040794;28;20447;-56
2021/03/19 00:35:51;;;;;;;0.20;0.10;;;;;;;3.26;100.00;100324.75;5036668;28;20545;-56
2021/03/19 00:38:17;;;;;;;0.20;0.10;;;;;;;3.19;100.00;100330.88;5045452;28;20460;-55
2021/03/19 00:40:44;;;;;;;0.20;0.10;;;;;;;3.29;100.00;100330.03;5046357;28;20846;-55
2021/03/19 00:43:13;;;;;;;0.20;0.10;;;;;;;3.38;100.00;100329.16;5028931;28;20460;-55
2021/03/19 00:45:39;;;;;;;0.20;0.10;;;;;;;3.29;100.00;100330.03;5041234;28;20470;-55
2021/03/19 00:48:05;;;;;;;0.20;0.10;;;;;;;3.31;100.00;100325.66;5041055;28;20951;-56
2021/03/19 00:50:48;;;;;;;0.20;0.10;;;;;;;3.14;100.00;100327.34;5039549;28;20534;-56
2021/03/19 00:53:14;;;;;;;0.20;0.10;;;;;;;3.22;100.00;100328.25;5032768;28;20617;-55
2021/03/19 00:55:40;;;;;;;0.20;0.10;;;;;;;3.10;100.00;100318.59;5045613;28;20862;-56
2021/03/19 00:58:06;;;;;;;0.20;0.10;;;;;;;3.22;100.00;100318.63;5043643;28;20462;-55
2021/03/19 01:00:35;;;;;;;0.20;0.20;;;;;;;3.26;100.00;100320.38;5039068;28;20455;-56
2021/03/19 01:03:03;;;;;;;0.20;0.10;;;;;;;3.14;100.00;100316.84;5041494;28;20447;-55
2021/03/19 01:05:36;;;;;;;0.20;0.10;;;;;;;3.09;100.00;100314.22;5045956;28;20980;-56
2021/03/19 01:08:04;;;;;;;0.20;0.10;;;;;;;3.21;100.00;100310.75;5044730;28;20446;-56
2021/03/19 01:10:38;;;;;;;0.20;0.10;;;;;;;3.23;100.00;100309.00;5037942;28;20447;-55
2021/03/19 01:13:05;;;;;;;0.20;0.10;;;;;;;3.25;100.00;100310.75;5038933;28;20446;-56
2021/03/19 01:15:33;;;;;;;0.20;0.10;;;;;;;3.18;100.00;100306.38;5045069;28;20475;-56
2021/03/19 01:17:59;;;;;;;0.20;0.10;;;;;;;3.08;100.00;100312.47;5046027;28;20454;-55
2021/03/19 01:20:29;;;;;;;0.20;0.10;;;;;;;3.14;100.00;100315.09;5026121;28;20550;-56
2021/03/19 01:22:55;;;;;;;0.20;0.10;;;;;;;3.23;100.00;100307.25;5038909;28;20458;-55
2021/03/19 01:25:24;;;;;;;0.20;0.10;;;;;;;3.30;100.00;100302.88;5044597;28;20479;-56
2021/03/19 01:27:50;;;;;;;0.20;0.10;;;;;;;3.31;100.00;100301.13;5045921;28;20455;-56
2021/03/19 01:30:19;;;;;;;0.20;0.10;;;;;;;3.25;100.00;100300.22;5040263;28;20848;-55
2021/03/19 01:32:47;;;;;;;0.20;0.20;;;;;;;3.25;100.00;100309.88;5038535;28;20448;-56
2021/03/19 01:35:15;;;;;;;0.20;0.20;;;;;;;3.26;100.00;100301.97;5043888;28;20475;-56
2021/03/19 01:37:43;;;;;;;0.20;0.20;;;;;;;3.25;100.00;100299.34;5045686;28;20509;-56
2021/03/19 01:40:12;;;;;;;0.20;0.10;;;;;;;3.27;100.00;100295.84;5041287;28;20531;-56
2021/03/19 01:42:39;;;;;;;0.20;0.10;;;;;;;3.25;100.00;100297.59;5035778;28;20455;-57
2021/03/19 01:45:40;;;;;;;0.20;0.10;;;;;;;3.30;100.00;100294.13;5031573;28;20886;-56
2021/03/19 01:48:43;;;;;;;0.20;0.10;;;;;;;3.25;100.00;100302.88;5044774;28;20878;-55
2021/03/19 01:51:47;;;;;;;0.30;0.10;;;;;;;3.35;100.00;100295.00;5045364;28;20447;-56
2021/03/19 01:54:50;;;;;;;0.67;0.67;;;;;;;3.33;100.00;100294.13;5036183;28;20540;-56
2021/03/19 01:57:54;;;;;;;0.20;0.10;;;;;;;3.42;100.00;100292.34;5038494;28;20526;-56
2021/03/19 02:00:58;;;;;;;0.20;0.10;;;;;;;3.26;100.00;100295.84;5038495;28;20451;-55
2021/03/19 02:04:02;;;;;;;0.20;0.20;;;;;;;3.43;100.00;100293.25;5038980;28;20458;-55
2021/03/19 02:07:05;;;;;;;0.20;0.10;;;;;;;3.32;100.00;100305.50;5032293;28;20968;-56
2021/03/19 02:10:09;;;;;;;0.40;0.40;;;;;;;3.54;100.00;100296.75;5041794;28;20515;-55
2021/03/19 02:13:12;;;;;;;0.30;0.20;;;;;;;3.48;100.00;100304.63;5043220;28;20451;-55
2021/03/19 02:16:16;;;;;;;0.20;0.10;;;;;;;3.44;100.00;100302.91;5025455;28;20486;-56
2021/03/19 02:19:19;;;;;;;0.20;0.10;;;;;;;3.60;100.00;100296.75;5038484;28;20450;-56
2021/03/19 02:22:32;;;;;;;0.20;0.10;;;;;;;3.55;100.00;100296.75;5039708;28;20809;-56
2021/03/19 02:25:37;;;;;;;0.20;0.10;;;;;;;3.43;100.00;100294.13;5044253;28;20498;-55
2021/03/19 02:28:40;;;;;;;0.20;0.10;;;;;;;3.45;100.00;100300.28;5039781;28;20459;-56
2021/03/19 02:31:12;;;;;;;0.20;0.10;;;;;;;3.57;100.00;100294.13;5041841;28;20842;-56
2021/03/19 02:33:41;;;;;;;0.20;0.17;;;;;;;3.59;100.00;100291.50;5038003;28;20451;-56
2021/03/19 02:36:09;;;;;;;0.20;0.20;;;;;;;3.56;100.00;100290.63;5040333;28;20495;-56
2021/03/19 02:38:36;;;;;;;1.07;1.07;;;;;;;3.63;100.00;100291.50;5044947;28;20463;-55
2021/03/19 02:41:02;;;;;;;1.47;0.83;;;;;;;3.68;100.00;100299.38;5043658;28;20539;-56
2021/03/19 02:43:29;;;;;;;0.20;0.13;;;;;;;3.62;100.00;100291.50;5037843;28;20450;-55
2021/03/19 02:45:55;;;;;;;0.20;0.20;;;;;;;3.60;100.00;100293.25;5039903;28;20467;-56
2021/03/19 02:48:21;;;;;;;0.20;0.10;;;;;;;3.66;100.00;100302.00;5044874;28;20462;-56
2021/03/19 02:50:49;;;;;;;0.30;0.20;;;;;;;3.61;100.00;100295.00;5047265;28;20556;-56
2021/03/19 02:53:18;;;;;;;0.20;0.10;;;;;;;3.53;100.00;100297.63;5041285;28;20455;-56
2021/03/19 02:55:44;;;;;;;0.20;0.10;;;;;;;3.55;100.00;100303.75;5042564;28;20491;-56
2021/03/19 02:58:10;;;;;;;0.20;0.10;;;;;;;3.26;100.00;100309.88;5048797;28;20471;-56
2021/03/19 03:00:37;;;;;;;0.20;0.10;;;;;;;3.38;100.00;100295.00;5047483;28;20451;-55
2021/03/19 03:03:04;;;;;;;0.20;0.10;;;;;;;3.46;100.00;100298.50;5040258;28;20447;-55
2021/03/19 03:05:31;;;;;;;0.20;0.20;;;;;;;3.49;100.00;100299.38;5042062;28;20471;-56
2021/03/19 03:07:59;;;;;;;0.20;0.10;;;;;;;3.38;100.00;100305.50;5048521;28;20452;-56
2021/03/19 03:10:27;;;;;;;0.20;0.10;;;;;;;3.00;100.00;100314.19;5047467;28;20726;-55
2021/03/19 03:12:53;;;;;;;0.20;0.10;;;;;;;2.68;100.00;100321.97;5035208;28;20537;-55
2021/03/19 03:15:21;;;;;;;0.20;0.10;;;;;;;2.56;100.00;100328.03;5027784;28;20484;-55
2021/03/19 03:17:48;;;;;;;0.20;0.10;;;;;;;2.17;100.00;100322.59;5028284;28;20490;-55
2021/03/19 03:20:32;;;;;;;0.20;0.10;;;;;;;2.12;100.00;100325.19;5040837;28;20798;-53
2021/03/19 03:22:58;;;;;;;0.20;0.10;;;;;;;2.01;100.00;100326.88;5048109;28;20447;-53
2021/03/19 03:25:25;;;;;;;0.20;0.20;;;;;;;2.13;100.00;100326.94;5044079;28;20475;-54
2021/03/19 03:27:54;;;;;;;0.20;0.10;;;;;;;2.27;100.00;100332.28;5041290;28;20446;-54
2021/03/19 03:30:32;;;;;;;0.20;0.10;;;;;;;2.13;100.00;100323.44;5039876;28;20447;-53
2021/03/19 03:33:00;;;;;;;0.20;0.10;;;;;;;1.91;100.00;100340.78;5045521;28;20475;-53
2021/03/19 03:35:27;;;;;;;0.20;0.10;;;;;;;1.90;100.00;100336.41;5047794;28;20553;-53
2021/03/19 03:37:57;;;;;;;0.20;0.10;;;;;;;1.79;100.00;100344.19;5044104;28;20533;-53
2021/03/19 03:40:38;;;;;;;0.20;0.10;;;;;;;1.83;100.00;100345.09;5040519;28;21001;-54
2021/03/19 03:43:05;;;;;;;0.20;0.10;;;;;;;1.74;100.00;100338.03;5041697;28;20499;-53
2021/03/19 03:45:31;;;;;;;0.20;0.10;;;;;;;1.81;100.00;100339.84;5047262;28;20475;-53
2021/03/19 03:47:59;;;;;;;0.20;0.10;;;;;;;1.99;100.00;100344.34;5047222;28;20458;-53
2021/03/19 03:50:28;;;;;;;0.20;0.20;;;;;;;1.96;100.00;100346.94;5040265;28;20466;-53
2021/03/19 03:53:06;;;;;;;0.20;0.10;;;;;;;2.20;100.00;100346.22;5040230;28;21018;-53
2021/03/19 03:55:32;;;;;;;0.20;0.10;;;;;;;2.28;100.00;100347.13;5045734;28;20530;-54
2021/03/19 03:58:00;;;;;;;0.20;0.10;;;;;;;2.44;100.00;100345.47;5047398;28;20538;-56
2021/03/19 04:00:26;;;;;;;0.20;0.10;;;;;;;2.48;100.00;100344.63;5041073;28;20454;-56
2021/03/19 04:02:54;;;;;;;0.20;0.10;;;;;;;2.52;100.00;100349.03;5040161;28;20470;-56
2021/03/19 04:05:29;;;;;;;0.20;0.20;;;;;;;2.51;100.00;100355.13;5044872;28;20476;-56
2021/03/19 04:07:55;;;;;;;0.20;0.10;;;;;;;2.81;100.00;100349.16;5047121;28;20502;-56
2021/03/19 04:10:22;;;;;;;0.20;0.10;;;;;;;2.88;100.00;100351.81;5044011;28;20455;-56
2021/03/19 04:12:49;;;;;;;0.20;0.10;;;;;;;2.84;100.00;100359.66;5034841;28;20517;-56
2021/03/19 04:15:17;;;;;;;0.20;0.20;;;;;;;2.75;100.00;100357.00;5023006;28;20887;-56
2021/03/19 04:17:44;;;;;;;0.20;0.10;;;;;;;2.62;100.00;100366.56;5046550;28;21054;-56
2021/03/19 04:20:15;;;;;;;0.20;0.10;;;;;;;2.65;100.00;100369.19;5023946;28;20946;-56
2021/03/19 04:22:42;;;;;;;0.20;0.10;;;;;;;2.85;100.00;100364.91;5044585;28;20466;-56
2021/03/19 04:25:10;;;;;;;0.20;0.10;;;;;;;2.62;100.00;100369.19;5042804;28;20991;-56
2021/03/19 04:27:50;;;;;;;0.20;0.10;;;;;;;2.76;100.00;100375.38;5038039;28;20865;-55
2021/03/19 04:30:24;;;;;;;0.20;0.10;;;;;;;3.12;100.00;100373.75;5039956;28;20455;-56
2021/03/19 04:32:52;;;;;;;0.20;0.10;;;;;;;2.93;100.00;100384.19;5040723;28;20540;-54
2021/03/19 04:35:21;;;;;;;0.20;0.10;;;;;;;2.98;100.00;100392.06;5039264;28;20506;-54
2021/03/19 04:37:48;;;;;;;0.20;0.10;;;;;;;2.88;100.00;100398.19;5045000;28;20492;-54
2021/03/19 04:40:15;;;;;;;0.20;0.10;;;;;;;2.96;100.00;100402.56;5045324;28;20450;-54
2021/03/19 04:42:42;;;;;;;0.20;0.20;;;;;;;2.89;100.00;100402.56;5038509;28;20446;-54
2021/03/19 04:45:11;;;;;;;0.20;0.20;;;;;;;3.18;100.00;100405.28;5041578;28;20466;-54
2021/03/19 04:47:37;;;;;;;0.20;0.10;;;;;;;3.12;100.00;100405.25;5040660;28;20447;-54
2021/03/19 04:50:07;;;;;;;0.20;0.10;;;;;;;2.77;100.00;100402.50;5039152;28;20455;-54
2021/03/19 04:52:33;;;;;;;0.20;0.10;;;;;;;2.95;100.00;100410.44;5043852;28;20451;-54
2021/03/19 04:55:01;;;;;;;0.20;0.10;;;;;;;2.65;100.00;100411.19;5046032;28;20467;-54
2021/03/19 04:57:27;;;;;;;0.20;0.10;;;;;;;2.88;100.00;100414.81;5042772;28;20487;-54
2021/03/19 04:59:53;;;;;;;0.20;0.10;;;;;;;2.88;100.00;100417.44;5039877;28;20455;-54
2021/03/19 05:02:34;;;;;;;0.20;0.10;;;;;;;2.94;100.00;100427.94;5042583;28;20447;-52
2021/03/19 05:05:01;;;;;;;0.20;0.10;;;;;;;2.89;100.00;100434.94;5046355;28;20463;-53
2021/03/19 05:07:27;;;;;;;7.90;2.57;;;;;;;2.94;100.00;100438.44;5044757;28;20439;-54
2021/03/19 05:09:54;;;;;;;3.10;2.20;;;;;;;2.86;100.00;100442.78;5037425;28;20462;-54
2021/03/19 05:12:20;;;;;;;0.20;0.10;;;;;;;2.90;100.00;100441.94;5040264;28;20873;-54
2021/03/19 05:14:46;;;;;;;0.20;0.10;;;;;;;2.85;100.00;100450.63;5045300;28;20988;-54
2021/03/19 05:17:13;;;;;;;0.20;0.10;;;;;;;2.92;100.00;100441.94;5044010;28;20513;-54
2021/03/19 05:19:39;;;;;;;0.20;0.20;;;;;;;2.89;100.00;100439.31;5033986;28;20454;-54
2021/03/19 05:22:05;;;;;;;0.20;0.10;;;;;;;3.17;100.00;100437.69;5044933;28;20505;-54
2021/03/19 05:24:32;;;;;;;0.20;0.10;;;;;;;3.12;100.00;100439.38;5038426;28;20999;-54
2021/03/19 05:26:58;;;;;;;0.20;0.10;;;;;;;3.20;100.00;100442.94;5035625;28;20990;-54
2021/03/19 05:29:25;;;;;;;0.20;0.10;;;;;;;3.07;100.00;100442.00;5044780;28;20526;-54
2021/03/19 05:31:52;;;;;;;0.20;0.10;;;;;;;3.20;100.00;100448.19;5045359;28;20508;-54
2021/03/19 05:34:18;;;;;;;0.20;0.10;;;;;;;3.41;100.00;100445.63;5038728;28;20466;-54
2021/03/19 05:36:44;;;;;;;0.20;0.10;;;;;;;3.50;100.00;100447.41;5039294;28;20569;-54
2021/03/19 05:39:11;;;;;;;0.20;0.10;;;;;;;3.42;100.00;100455.25;5045389;28;20456;-54
2021/03/19 05:41:40;;;;;;;0.20;0.20;;;;;;;3.41;100.00;100464.00;5044850;28;20863;-54
2021/03/19 05:44:11;;;;;;;0.20;0.10;;;;;;;3.52;100.00;100469.31;5038099;28;20475;-54
2021/03/19 05:47:04;;;;;;;0.20;0.10;;;;;;;3.32;100.00;100471.00;5038055;28;20980;-54
2021/03/19 05:49:34;;;;;;;0.20;0.10;;;;;;;3.32;100.00;100471.00;5041346;28;20474;-54
2021/03/19 05:52:18;;;;;;;0.20;0.10;;;;;;;3.50;100.00;100465.78;5045002;28;20521;-54
2021/03/19 05:54:45;;;;;;;0.20;0.10;;;;;;;3.25;100.00;100472.72;5044972;28;20479;-54
2021/03/19 05:57:28;;;;;;;0.20;0.20;;;;;;;3.16;100.00;100483.19;5039390;28;20512;-54
2021/03/19 05:59:58;;;;;;;0.20;0.10;;;;;;;3.15;100.00;100482.31;5038129;28;20446;-54
2021/03/19 06:02:35;;;;;;;0.20;0.10;;;;;;;3.05;100.00;100479.63;5041223;28;20944;-53
2021/03/19 06:05:06;;;;;;;0.20;0.10;;;;;;;3.05;100.00;100491.00;5044947;28;20536;-54
2021/03/19 06:07:52;;;;;;;0.20;0.10;;;;;;;3.03;100.00;100490.13;5044585;28;20442;-53
2021/03/19 06:10:38;;;;;;;0.20;0.10;;;;;;;3.10;100.00;100510.28;5043715;28;20451;-53
2021/03/19 06:13:04;;;;;;;0.20;0.10;;;;;;;2.98;100.00;100504.97;5042964;28;20475;-53
2021/03/19 06:15:46;;;;;;;0.20;0.10;;;;;;;3.13;100.00;100494.53;5042724;28;20471;-52
2021/03/19 06:18:32;;;;;;;0.20;0.10;;;;;;;3.17;100.00;100498.09;5044711;28;20484;-52
2021/03/19 06:21:10;;;;;;;0.20;0.10;;;;;;;3.14;100.00;100500.66;5034591;28;21374;-52
2021/03/19 06:23:39;;;;;;;0.20;0.10;;;;;;;3.11;100.00;100498.03;5039214;28;20998;-53
2021/03/19 06:26:19;;;;;;;0.30;0.20;;;;;;;3.18;100.00;100507.72;5044683;28;20552;-52
2021/03/19 06:28:49;;;;;;;0.20;0.10;;;;;;;3.19;100.00;100510.34;5048939;28;20450;-53
2021/03/19 06:31:24;;;;;;;0.30;0.10;;;;;;;3.04;100.00;100512.03;5043461;28;20438;-52
2021/03/19 06:34:07;;;;;;;0.20;0.10;;;;;;;2.99;100.00;100509.34;5042173;28;20508;-53
2021/03/19 06:36:51;;;;;;;0.20;0.10;;;;;;;3.05;100.00;100498.91;5043846;28;20491;-52
2021/03/19 06:39:24;;;;;;;0.20;0.10;;;;;;;3.15;100.00;100502.41;5042602;28;20443;-52
2021/03/19 06:42:02;;;;;;;0.20;0.10;;;;;;;3.02;100.00;100506.75;5041542;28;20497;-51
2021/03/19 06:44:35;;;;;;;0.20;0.10;;;;;;;3.03;100.00;100512.91;5031701;28;20478;-51
2021/03/19 06:47:13;;;;;;;0.20;0.10;;;;;;;3.16;100.00;100515.59;5048422;28;20451;-51
2021/03/19 06:49:50;;;;;;;0.20;0.10;;;;;;;3.03;100.00;100515.50;5047525;28;20453;-51
2021/03/19 06:52:28;;;;;;;0.20;0.10;;;;;;;3.02;100.00;100522.53;5047475;28;20785;-52
2021/03/19 06:55:03;;;;;;;0.20;0.10;;;;;;;2.95;100.00;100523.34;5048164;28;20472;-51
2021/03/19 06:57:45;;;;;;;0.20;0.10;;;;;;;2.95;100.00;100520.72;5044746;28;20490;-51
2021/03/19 07:00:12;;;;;;;0.20;0.10;;;;;;;2.99;100.00;100532.97;5041390;28;20542;-51
2021/03/19 07:02:41;;;;;;;0.20;0.10;;;;;;;2.95;100.00;100537.34;5041934;28;20447;-51
2021/03/19 07:05:14;;;;;;;0.20;0.10;;;;;;;3.02;100.00;100533.03;5046968;28;20511;-51
2021/03/19 07:08:06;;;;;;;0.20;0.10;;;;;;;3.04;100.00;100540.91;5048110;28;20475;-51
2021/03/19 07:10:52;;;;;;;0.20;0.17;;;;;;;3.07;100.00;100540.91;5045518;28;20936;-51
2021/03/19 07:13:29;;;;;;;0.20;0.10;;;;;;;3.13;100.00;100549.69;5047707;28;20517;-51
2021/03/19 07:16:14;;;;;;;0.20;0.10;;;;;;;3.21;100.00;100558.50;5047377;28;20477;-50
2021/03/19 07:19:11;;;;;;;0.20;0.10;;;;;;;3.24;100.00;100555.88;5045502;28;20439;-51
2021/03/19 07:21:51;;;;;;;0.20;0.10;;;;;;;3.10;100.00;100568.06;5031913;28;20449;-51
2021/03/19 07:24:21;;;;;;;0.20;0.20;;;;;;;3.23;100.00;100567.25;5040774;28;20905;-51
2021/03/19 07:26:51;;;;;;;0.20;0.10;;;;;;;3.34;100.00;100567.31;5039359;28;20451;-51
2021/03/19 07:29:20;;;;;;;0.20;0.10;;;;;;;3.38;100.00;100576.97;5047415;28;20510;-51
2021/03/19 07:32:13;;;;;;;0.20;0.10;;;;;;;3.28;100.00;100570.78;5046065;28;20461;-51
2021/03/19 07:34:57;;;;;;;0.20;0.10;;;;;;;3.34;100.00;100569.09;5044632;28;20554;-51
2021/03/19 07:38:06;;;;;;;0.20;0.10;;;;;;;3.16;100.00;100583.88;5047519;28;20488;-51
2021/03/19 07:41:06;;;;;;;0.20;0.10;;;;;;;3.40;100.00;100590.13;5047217;28;20812;-51
2021/03/19 07:43:57;;;;;;;0.20;0.10;;;;;;;3.37;100.00;100585.72;5034604;28;20475;-51
2021/03/19 07:47:11;;;;;;;0.20;0.10;;;;;;;3.45;100.00;100583.16;5046269;28;20521;-51
2021/03/19 07:49:46;;;;;;;0.23;0.13;;;;;;;3.52;100.00;100592.81;4995619;28;20476;-51
2021/03/19 07:52:42;;;;;;;0.20;0.10;;;;;;;3.39;100.00;100597.13;5024563;28;20458;-51
2021/03/19 07:55:21;;;;;;;0.20;0.10;;;;;;;3.28;99.06;100610.19;5040084;28;20475;-51
2021/03/19 07:58:14;;;;;;;0.20;0.10;;;;;;;3.36;100.00;100602.38;5040777;28;21027;-51
2021/03/19 08:00:49;;;;;;;0.20;0.10;;;;;;;3.64;100.00;100608.63;5043472;28;20443;-51
2021/03/19 08:03:27;;;;;;;0.20;0.10;;;;;;;3.67;100.00;100610.41;5040203;28;20442;-51
2021/03/19 08:05:54;;;;;;;0.20;0.10;;;;;;;3.69;100.00;100609.53;5040953;28;20468;-51
2021/03/19 08:08:47;;;;;;;0.20;0.10;;;;;;;3.82;98.25;100613.09;5046894;28;20443;-51
2021/03/19 08:11:29;;;;;;;0.20;0.10;;;;;;;3.80;98.36;100617.47;5046939;28;20455;-51
2021/03/19 08:14:01;;;;;;;0.20;0.10;;;;;;;3.68;97.42;100635.81;5022033;28;20825;-51
2021/03/19 08:16:32;;;;;;;0.20;0.20;;;;;;;3.59;97.01;100618.25;5046278;28;20491;-50
2021/03/19 08:19:36;;;;;;;0.20;0.10;;;;;;;3.74;98.25;100622.72;5047086;28;20443;-51
2021/03/19 08:22:24;;;;;;;0.20;0.20;;;;;;;4.19;99.24;100618.47;4999476;28;20457;-51
2021/03/19 08:24:57;;;;;;;0.20;0.10;;;;;;;4.24;98.76;100628.13;5028607;28;20473;-50
2021/03/19 08:27:47;;;;;;;0.20;0.20;;;;;;;4.18;97.75;100632.50;5036008;28;20436;-51
2021/03/19 08:30:30;;;;;;;0.20;0.10;;;;;;;4.21;96.79;100640.41;5040801;28;20937;-51
2021/03/19 08:33:12;;;;;;;0.20;0.10;;;;;;;4.33;95.31;100637.81;5041555;28;20955;-51
2021/03/19 08:35:52;;;;;;;0.20;0.10;;;;;;;4.15;92.34;100647.41;5039613;28;20467;-51
2021/03/19 08:38:28;;;;;;;0.20;0.10;;;;;;;4.24;93.69;100648.28;5041227;28;20483;-50
2021/03/19 08:41:10;;;;;;;0.20;0.10;;;;;;;4.35;93.70;100647.44;5039991;28;20450;-51
2021/03/19 08:43:41;;;;;;;0.20;0.10;;;;;;;4.50;92.41;100648.34;5039381;28;20448;-51
2021/03/19 08:46:31;;;;;;;0.20;0.10;;;;;;;4.41;91.35;100646.59;5042707;28;20817;-51
2021/03/19 08:49:05;;;;;;;0.30;0.10;;;;;;;4.71;90.18;100659.81;5045892;28;20463;-51
2021/03/19 08:51:32;;;;;;;0.20;0.10;;;;;;;4.60;88.71;100674.72;5046050;28;20442;-50
2021/03/19 08:54:12;;;;;;;0.40;0.40;;;;;;;4.65;90.80;100657.16;5039468;28;21034;-50
2021/03/19 08:57:02;;;;;;;0.20;0.10;;;;;;;4.73;88.13;100663.31;5039157;28;21046;-51
2021/03/19 08:59:31;;;;;;;0.20;0.20;;;;;;;4.51;86.86;100666.78;5039644;28;20512;-51
2021/03/19 09:01:59;;;;;;;0.20;0.10;;;;;;;4.63;87.68;100671.19;5038958;28;20454;-51
2021/03/19 09:04:50;;;;;;;0.20;0.10;;;;;;;4.65;86.35;100670.31;5039421;28;20483;-51
2021/03/19 09:07:37;;;;;;;0.20;0.10;;;;;;;4.94;85.96;100665.09;5041468;28;20454;-51
2021/03/19 09:10:18;;;;;;;0.20;0.10;;;;;;;5.05;86.10;100676.50;5039240;28;20447;-51
2021/03/19 09:12:57;;;;;;;0.20;0.10;;;;;;;4.93;83.97;100670.34;5034955;28;20455;-51
2021/03/19 09:15:31;;;;;;;0.20;0.10;;;;;;;5.15;85.00;100669.47;5035720;28;20470;-51
2021/03/19 09:17:57;;;;;;;0.20;0.10;;;;;;;4.97;85.50;100688.81;5038636;28;20717;-51
2021/03/19 09:20:38;;;;;;;0.20;0.10;;;;;;;5.20;84.38;100677.38;5028767;28;20449;-51
2021/03/19 09:23:07;;;;;;;0.20;0.10;;;;;;;5.30;84.84;100685.28;5026707;28;20505;-50
2021/03/19 09:26:04;;;;;;;0.20;0.10;;;;;;;5.50;88.89;100690.53;5038644;28;20479;-51
2021/03/19 09:28:37;;;;;;;0.20;0.20;;;;;;;5.56;85.37;100694.91;5040070;28;20509;-50
2021/03/19 09:31:06;;;;;;;0.20;0.13;;;;;;;5.46;82.91;100695.81;5045455;28;20444;-52
2021/03/19 09:33:45;;;;;;;0.20;0.10;;;;;;;5.48;86.65;100694.03;5045277;28;20450;-52
2021/03/19 09:36:49;;;;;;;0.20;0.10;;;;;;;5.42;84.65;100697.56;5029060;28;20450;-51
2021/03/19 09:39:55;;;;;;;0.20;0.10;;;;;;;5.35;84.67;100688.81;5044782;28;20521;-51
2021/03/19 09:42:22;;;;;;;0.20;0.10;;;;;;;5.45;84.81;100680.88;5045096;28;20444;-51
2021/03/19 09:45:00;;;;;;;0.20;0.10;;;;;;;5.63;83.60;100680.84;5044285;28;20495;-51
2021/03/19 09:47:33;;;;;;;0.20;0.10;;;;;;;5.71;80.26;100686.09;5043050;28;20440;-51
2021/03/19 09:50:23;;;;;;;0.20;0.10;;;;;;;5.85;83.72;100692.22;5045224;28;20533;-51
2021/03/19 09:53:06;;;;;;;1.03;0.43;;;;;;;5.82;83.24;100705.41;5043577;28;20470;-50
2021/03/19 09:55:39;;;;;;;0.20;0.10;;;;;;;6.13;85.19;100703.56;5043836;28;20475;-51
2021/03/19 09:58:22;;;;;;;0.20;0.10;;;;;;;5.66;83.58;100715.13;5044931;28;20486;-51
2021/03/19 10:00:56;;;;;;;0.20;0.10;;;;;;;5.85;86.02;100706.28;5046197;28;20450;-51
2021/03/19 10:03:23;;;;;;;0.20;0.20;;;;;;;6.00;83.51;100715.06;5042152;28;20445;-51
2021/03/19 10:05:50;;;;;;;0.30;0.20;;;;;;;5.60;81.38;100718.63;5043512;28;20499;-51
2021/03/19 10:08:25;;;;;;;0.20;0.10;;;;;;;5.06;81.40;100744.13;5048879;28;20447;-51
2021/03/19 10:11:03;;;;;;;0.20;0.10;;;;;;;5.20;82.49;100722.16;5049301;28;20446;-51
2021/03/19 10:13:30;;;;;;;0.20;0.20;;;;;;;5.09;82.24;100721.31;5028247;28;20448;-51
2021/03/19 10:15:56;;;;;;;0.20;0.10;;;;;;;5.47;84.27;100719.53;5044659;28;20467;-51
2021/03/19 10:18:32;;;;;;;0.23;0.10;;;;;;;5.43;82.75;100720.41;5044016;28;20490;-51
2021/03/19 10:21:12;;;;;;;0.20;0.10;;;;;;;5.17;80.46;100730.94;5028895;28;20446;-52
2021/03/19 10:23:41;;;;;;;0.20;0.20;;;;;;;4.92;81.79;100723.91;5043788;28;20456;-51
2021/03/19 10:26:27;;;;;;;0.30;0.30;;;;;;;5.37;81.26;100725.69;5044644;28;20548;-51
2021/03/19 10:29:19;;;;;;;0.20;0.10;;;;;;;5.69;78.75;100730.94;5048770;28;20482;-51
2021/03/19 10:31:53;;;;;;;0.20;0.10;;;;;;;5.89;77.59;100725.59;5046957;28;20443;-51
2021/03/19 10:34:32;;;;;;;0.30;0.20;;;;;;;6.03;78.74;100723.88;5042174;28;20473;-51
2021/03/19 10:37:01;;;;;;;0.20;0.10;;;;;;;5.77;79.21;100733.56;5041510;28;20549;-51
2021/03/19 10:39:36;;;;;;;0.20;0.10;;;;;;;5.47;77.84;100734.47;5046824;28;20538;-51
2021/03/19 10:42:25;;;;;;;0.30;0.20;;;;;;;5.28;77.63;100737.09;5048696;28;20447;-51
2021/03/19 10:45:14;;;;;;;0.30;0.20;;;;;;;5.37;78.36;100730.09;5047620;28;20473;-51
2021/03/19 10:48:01;;;;;;;0.20;0.10;;;;;;;5.33;77.93;100739.72;5045827;28;20452;-51
2021/03/19 10:50:35;;;;;;;0.20;0.10;;;;;;;5.36;77.08;100731.84;5048057;28;20456;-52
2021/03/19 10:53:09;;;;;;;0.20;0.10;;;;;;;5.70;76.63;100747.63;5048150;28;20486;-51
2021/03/19 10:55:37;;;;;;;0.20;0.20;;;;;;;5.38;74.05;100738.00;5047174;28;21053;-51
2021/03/19 10:58:20;;;;;;;0.20;0.20;;;;;;;5.65;76.72;100745.88;5047784;28;20540;-52
2021/03/19 11:00:51;;;;;;;0.20;0.20;;;;;;;6.24;74.78;100736.97;5044986;28;20454;-51
2021/03/19 11:03:45;;;;;;;0.20;0.10;;;;;;;6.40;70.26;100753.63;5041654;28;20439;-51
2021/03/19 11:06:33;;;;;;;0.20;0.10;;;;;;;6.43;72.31;100739.53;5036499;28;20455;-51
2021/03/19 11:09:07;;;;;;;0.20;0.20;;;;;;;6.77;74.98;100758.72;5043980;28;20435;-51
2021/03/19 11:11:33;;;;;;;0.20;0.10;;;;;;;6.49;71.88;100758.88;5047916;28;20451;-51
2021/03/19 11:14:09;;;;;;;0.20;0.10;;;;;;;6.45;72.86;100758.91;5046673;28;20447;-51
2021/03/19 11:16:39;;;;;;;0.27;0.20;;;;;;;6.86;73.44;100753.41;5040876;28;20504;-51
2021/03/19 11:19:15;;;;;;;0.20;0.10;;;;;;;6.82;74.46;100752.53;5040806;28;20444;-51
2021/03/19 11:21:43;;;;;;;0.30;0.20;;;;;;;6.27;73.13;100756.31;5043686;28;20446;-51
2021/03/19 11:24:27;;;;;;;0.23;0.20;;;;;;;6.27;72.23;100758.94;5041092;28;20474;-51
2021/03/19 11:26:57;;;;;;;0.20;0.10;;;;;;;6.15;73.29;100779.22;5050382;28;20941;-51
2021/03/19 11:29:35;;;;;;;0.20;0.10;;;;;;;5.50;73.75;100771.41;5022534;28;20458;-51
2021/03/19 11:32:10;;;;;;;0.20;0.10;;;;;;;5.72;74.89;100777.50;5047521;28;20455;-51
2021/03/19 11:34:38;;;;;;;0.20;0.10;;;;;;;5.53;73.27;100774.91;5042825;28;20466;-51
2021/03/19 11:37:23;;;;;;;0.20;0.20;;;;;;;5.72;74.76;100770.47;5040101;28;20495;-51
2021/03/19 11:39:49;;;;;;;0.20;0.20;;;;;;;5.56;77.80;100785.44;5041484;28;20444;-51
2021/03/19 11:42:18;;;;;;;0.20;0.10;;;;;;;5.74;77.11;100789.81;5047293;28;20479;-51
2021/03/19 11:44:48;;;;;;;0.20;0.13;;;;;;;5.54;74.31;100818.84;5032877;28;20482;-51
2021/03/19 11:47:20;;;;;;;0.20;0.10;;;;;;;5.47;74.51;100805.63;5045694;28;21026;-51
2021/03/19 11:49:49;;;;;;;0.20;0.10;;;;;;;5.62;75.90;100803.03;5041569;28;20448;-52
2021/03/19 11:52:17;;;;;;;0.20;0.10;;;;;;;5.89;75.93;100796.81;5046242;28;20473;-51
2021/03/19 11:54:46;;;;;;;0.20;0.10;;;;;;;6.07;73.91;100811.81;5046620;28;21065;-52
2021/03/19 11:57:13;;;;;;;0.20;0.20;;;;;;;5.90;73.60;100807.44;5040549;28;20548;-51
2021/03/19 11:59:40;;;;;;;0.20;0.17;;;;;;;5.62;74.61;100811.81;5040674;28;20455;-51
2021/03/19 12:02:24;;;;;;;0.20;0.10;;;;;;;5.16;74.61;100810.88;5040365;28;20962;-51
2021/03/19 12:04:51;;;;;;;0.20;0.10;;;;;;;5.39;74.10;100794.22;5040149;28;21295;-51